Time;durP1;ratioP1;P1;durP2;ratioP2;P2;SDS_P1;SDS_P2;PMS_P1;PMS_P2;Temp;Humidity;BMP_temperature;BMP_pressure;BME280_temperature;BME280_humidity;BME280_pressure;Samples;Min_cycle;Max_cycle;Signal;HPM_P1;HPM_P2
2023/05/16 00:02:34;;;;;;;5.70;3.23;;;;;;;13.31;70.70;101210.28;6215551;28;20232;-69
2023/05/16 00:05:55;;;;;;;1.90;1.57;;;;;;;12.94;71.08;101213.84;6222649;28;20232;-69
2023/05/16 00:09:16;;;;;;;3.20;3.00;;;;;;;13.10;70.69;101208.78;6212696;28;20236;-69
2023/05/16 00:12:39;;;;;;;2.43;2.20;;;;;;;13.34;71.06;101215.44;6214141;28;20224;-69
2023/05/16 00:16:01;;;;;;;2.70;2.50;;;;;;;13.51;70.34;101219.22;6219009;28;20228;-69
2023/05/16 00:19:22;;;;;;;2.33;2.00;;;;;;;13.36;70.14;101224.25;6204935;28;20323;-69
2023/05/16 00:22:43;;;;;;;2.33;2.17;;;;;;;13.17;70.71;101228.84;6206142;28;20510;-69
2023/05/16 00:26:04;;;;;;;1.30;1.30;;;;;;;13.25;70.04;101234.38;6219141;28;20667;-69
2023/05/16 00:29:26;;;;;;;2.43;2.33;;;;;;;13.20;70.39;101218.59;6185326;28;20255;-69
2023/05/16 00:32:47;;;;;;;2.00;1.83;;;;;;;13.09;70.64;101218.75;6201638;28;20769;-68
2023/05/16 00:36:08;;;;;;;2.63;1.87;;;;;;;13.30;70.39;101221.28;6219147;28;20228;-68
2023/05/16 00:39:29;;;;;;;2.17;1.97;;;;;;;13.25;70.10;101229.81;6193916;28;20239;-69
2023/05/16 00:42:50;;;;;;;1.30;1.20;;;;;;;13.30;69.91;101223.97;6194531;28;20232;-69
2023/05/16 00:46:12;;;;;;;1.30;1.20;;;;;;;13.12;70.33;101231.97;6219443;28;21080;-70
2023/05/16 00:49:33;;;;;;;1.83;1.73;;;;;;;12.94;71.02;101220.13;6212687;28;20252;-69
2023/05/16 00:52:55;;;;;;;1.23;1.20;;;;;;;12.93;70.49;101228.41;6212330;28;20232;-70
2023/05/16 00:56:16;;;;;;;2.00;1.20;;;;;;;12.97;70.62;101230.69;6224900;28;20610;-69
2023/05/16 00:59:37;;;;;;;1.53;1.40;;;;;;;13.09;70.81;101231.41;6210753;28;20233;-69
2023/05/16 01:02:59;;;;;;;1.83;1.33;;;;;;;12.96;70.72;101231.66;6208167;28;20224;-69
2023/05/16 01:06:20;;;;;;;2.60;2.07;;;;;;;13.00;70.65;101232.22;6224783;28;20240;-68
2023/05/16 01:09:41;;;;;;;1.37;1.27;;;;;;;12.98;71.21;101229.66;6217147;28;20224;-69
2023/05/16 01:13:22;;;;;;;3.50;1.53;;;;;;;13.31;70.42;101234.66;6206703;28;20228;-69
2023/05/16 01:16:49;;;;;;;4.90;2.60;;;;;;;13.14;70.38;101231.84;6214634;28;20256;-69
2023/05/16 01:20:23;;;;;;;1.20;1.10;;;;;;;13.41;69.84;101232.78;6222482;28;20224;-70
2023/05/16 01:23:52;;;;;;;2.00;1.13;;;;;;;13.47;70.02;101236.78;6198488;28;20249;-67
2023/05/16 01:27:16;;;;;;;1.23;0.97;;;;;;;13.31;70.06;101233.78;6212202;28;20228;-70
2023/05/16 01:30:40;;;;;;;3.17;1.60;;;;;;;13.13;70.25;101240.94;6209705;28;20228;-69
2023/05/16 01:34:05;;;;;;;1.37;1.10;;;;;;;13.26;70.41;101245.09;6207443;28;21023;-69
2023/05/16 01:37:34;;;;;;;1.83;1.67;;;;;;;13.31;70.30;101228.38;6213985;28;20666;-68
2023/05/16 01:41:00;;;;;;;1.70;1.60;;;;;;;13.13;70.64;101238.25;6200352;28;22752;-69
2023/05/16 01:44:28;;;;;;;0.97;0.97;;;;;;;13.35;70.68;101235.25;6198856;28;20517;-69
2023/05/16 01:47:57;;;;;;;2.40;1.00;;;;;;;13.43;70.93;101241.63;6190308;28;20591;-69
2023/05/16 01:51:22;;;;;;;1.50;1.27;;;;;;;13.15;71.56;101237.09;6209827;28;20949;-69
2023/05/16 01:54:45;;;;;;;4.73;1.90;;;;;;;13.24;71.73;101252.50;6230646;28;20232;-69
2023/05/16 01:58:08;;;;;;;2.60;1.37;;;;;;;13.12;71.92;101250.91;6199673;28;20237;-69
2023/05/16 02:01:32;;;;;;;2.13;1.23;;;;;;;12.99;72.17;101255.75;6218741;28;20244;-67
2023/05/16 02:04:53;;;;;;;1.47;1.37;;;;;;;13.01;72.59;101256.47;6245541;28;20224;-69
2023/05/16 02:08:14;;;;;;;2.10;1.40;;;;;;;13.09;71.63;101251.22;6200367;28;20622;-70
2023/05/16 02:11:35;;;;;;;2.83;1.63;;;;;;;12.93;72.31;101255.47;6211142;28;20229;-68
2023/05/16 02:14:56;;;;;;;6.37;2.17;;;;;;;12.81;71.83;101247.47;6221911;28;20232;-69
2023/05/16 02:18:19;;;;;;;2.00;1.73;;;;;;;12.94;72.06;101246.34;6188288;28;20240;-68
2023/05/16 02:21:40;;;;;;;2.20;2.00;;;;;;;13.12;71.21;101244.69;6216942;28;20311;-69
2023/05/16 02:25:02;;;;;;;4.53;1.87;;;;;;;12.99;71.03;101242.22;6229166;28;20251;-69
2023/05/16 02:28:23;;;;;;;4.20;2.03;;;;;;;12.83;70.69;101252.72;6217980;28;20221;-68
2023/05/16 02:31:43;;;;;;;3.67;2.03;;;;;;;12.83;70.65;101253.59;6218911;28;20228;-70
2023/05/16 02:35:07;;;;;;;2.87;1.53;;;;;;;12.69;70.59;101251.31;6226555;28;20614;-70
2023/05/16 02:38:28;;;;;;;3.40;1.77;;;;;;;12.85;69.97;101259.72;6215148;28;20311;-70
2023/05/16 02:41:49;;;;;;;2.40;1.30;;;;;;;12.57;69.97;101255.16;6199018;28;20246;-70
2023/05/16 02:45:11;;;;;;;1.63;1.40;;;;;;;12.71;70.31;101261.97;6211463;28;20229;-69
2023/05/16 02:48:32;;;;;;;4.00;1.37;;;;;;;12.54;70.38;101265.38;6210789;28;20240;-68
2023/05/16 02:51:54;;;;;;;2.93;1.80;;;;;;;12.75;70.23;101274.22;6214043;28;20233;-69
2023/05/16 02:55:15;;;;;;;2.73;1.97;;;;;;;12.61;70.27;101272.81;6206574;28;20606;-69
2023/05/16 02:58:36;;;;;;;8.97;2.23;;;;;;;12.69;70.03;101275.66;6197337;28;20225;-69
2023/05/16 03:01:57;;;;;;;2.97;2.00;;;;;;;12.68;69.88;101271.22;6205179;28;20316;-69
2023/05/16 03:05:18;;;;;;;6.90;2.27;;;;;;;12.65;70.04;101276.94;6204550;28;20608;-70
2023/05/16 03:08:40;;;;;;;3.23;1.07;;;;;;;12.65;69.57;101287.75;6209543;28;20233;-70
2023/05/16 03:12:04;;;;;;;1.70;1.33;;;;;;;12.43;69.33;101284.44;6199269;28;20240;-69
2023/05/16 03:15:25;;;;;;;5.37;1.83;;;;;;;12.44;69.83;101281.56;6201292;28;20229;-68
2023/05/16 03:18:47;;;;;;;6.70;2.83;;;;;;;12.55;69.85;101289.59;6207283;28;20255;-69
2023/05/16 03:22:08;;;;;;;3.67;3.30;;;;;;;12.80;69.34;101294.47;6199607;28;20221;-68
2023/05/16 03:25:30;;;;;;;2.63;2.43;;;;;;;12.68;68.59;101292.88;6210178;28;20250;-68
2023/05/16 03:28:51;;;;;;;3.67;2.60;;;;;;;12.46;69.13;101298.53;6210045;28;20327;-69
2023/05/16 03:32:12;;;;;;;3.97;1.53;;;;;;;12.56;68.79;101296.69;6206895;28;20233;-69
2023/05/16 03:35:34;;;;;;;10.67;2.17;;;;;;;12.48;67.89;101304.66;6186888;28;20229;-69
2023/05/16 03:38:55;;;;;;;7.30;2.57;;;;;;;12.67;68.20;101309.25;6216043;28;20231;-69
2023/05/16 03:42:17;;;;;;;3.40;1.97;;;;;;;12.66;68.32;101311.09;6197216;28;20236;-69
2023/05/16 03:45:39;;;;;;;3.83;1.63;;;;;;;12.31;67.41;101310.69;6223289;28;20258;-68
2023/05/16 03:49:00;;;;;;;4.63;1.43;;;;;;;12.60;67.72;101317.06;6208337;28;22380;-71
2023/05/16 03:52:21;;;;;;;3.33;2.13;;;;;;;12.57;67.70;101316.50;6212368;28;20225;-69
2023/05/16 03:55:42;;;;;;;4.03;2.23;;;;;;;12.47;66.86;101311.06;6218004;28;20220;-68
2023/05/16 03:59:04;;;;;;;5.60;2.33;;;;;;;12.32;67.62;101312.44;6213291;28;20233;-68
2023/05/16 04:02:26;;;;;;;4.13;2.80;;;;;;;12.39;66.97;101327.09;6208013;28;20257;-69
2023/05/16 04:05:46;;;;;;;4.07;2.03;;;;;;;12.32;67.77;101327.78;6220392;28;20788;-68
2023/05/16 04:09:08;;;;;;;3.67;2.30;;;;;;;12.39;67.41;101323.56;6207614;28;20229;-69
2023/05/16 04:12:29;;;;;;;2.87;2.00;;;;;;;12.44;67.43;101323.97;6212639;28;20240;-69
2023/05/16 04:15:51;;;;;;;6.27;2.47;;;;;;;12.59;67.54;101331.59;6221821;28;20328;-69
2023/05/16 04:19:12;;;;;;;4.37;1.73;;;;;;;12.40;67.57;101336.94;6206394;28;20259;-69
2023/05/16 04:22:33;;;;;;;5.03;2.37;;;;;;;12.36;67.53;101340.91;6206406;28;20244;-69
2023/05/16 04:25:55;;;;;;;5.50;2.73;;;;;;;12.38;67.35;101347.03;6229576;28;20241;-69
2023/05/16 04:29:16;;;;;;;5.53;2.50;;;;;;;12.53;66.88;101351.06;6203569;28;20669;-68
2023/05/16 04:32:39;;;;;;;5.00;1.77;;;;;;;12.66;67.00;101359.78;6198207;28;20225;-69
2023/05/16 04:36:00;;;;;;;8.70;3.27;;;;;;;12.64;66.86;101363.63;6222384;28;20236;-69
2023/05/16 04:39:21;;;;;;;4.97;2.17;;;;;;;12.46;65.95;101355.31;6197199;28;20606;-69
2023/05/16 04:42:42;;;;;;;2.00;1.73;;;;;;;12.61;65.74;101356.66;6207211;28;20594;-69
2023/05/16 04:46:03;;;;;;;5.83;2.23;;;;;;;12.70;64.91;101366.63;6223101;28;20352;-69
2023/05/16 04:49:25;;;;;;;1.80;1.27;;;;;;;12.50;65.41;101372.97;6206667;28;20244;-70
2023/05/16 04:52:46;;;;;;;2.03;1.47;;;;;;;12.37;65.32;101374.22;6209465;28;20254;-69
2023/05/16 04:56:07;;;;;;;5.10;2.17;;;;;;;12.31;64.54;101370.19;6219722;28;20229;-69
2023/05/16 04:59:28;;;;;;;9.43;2.23;;;;;;;11.93;65.28;101389.72;6200798;28;20240;-70
2023/05/16 05:02:49;;;;;;;4.07;2.27;;;;;;;12.20;65.12;101393.75;6196876;28;20585;-69
2023/05/16 05:06:10;;;;;;;1.47;1.13;;;;;;;11.92;64.75;101396.16;6220533;28;20232;-69
2023/05/16 05:09:31;;;;;;;6.63;2.03;;;;;;;12.16;64.21;101400.41;6216341;28;20236;-69
2023/05/16 05:12:52;;;;;;;2.33;1.43;;;;;;;12.22;63.76;101397.19;6211367;28;20236;-69
2023/05/16 05:16:13;;;;;;;3.10;2.17;;;;;;;12.25;63.49;101405.00;6219378;28;20518;-69
2023/05/16 05:19:34;;;;;;;2.10;1.53;;;;;;;12.11;62.89;101397.25;6213277;28;20257;-69
2023/05/16 05:22:56;;;;;;;2.60;1.70;;;;;;;12.36;63.22;101402.22;6192857;28;20225;-69
2023/05/16 05:26:18;;;;;;;5.97;2.70;;;;;;;12.86;63.60;101404.00;6210253;28;20233;-69
2023/05/16 05:29:39;;;;;;;3.67;1.67;;;;;;;13.28;63.13;101410.09;6207945;28;20233;-68
2023/05/16 05:32:59;;;;;;;8.00;1.87;;;;;;;13.58;63.30;101407.25;6192573;28;20243;-67
2023/05/16 05:36:20;;;;;;;5.17;2.27;;;;;;;13.38;61.87;101417.25;6211525;28;20233;-69
2023/05/16 05:39:44;;;;;;;4.13;2.23;;;;;;;13.52;61.86;101413.25;6217171;28;20237;-68
2023/05/16 05:43:04;;;;;;;4.57;1.53;;;;;;;13.57;62.02;101417.28;6204753;28;20237;-69
2023/05/16 05:46:26;;;;;;;4.47;2.33;;;;;;;13.39;61.77;101418.13;6218252;28;20235;-69
2023/05/16 05:49:46;;;;;;;3.50;1.27;;;;;;;13.44;61.27;101422.09;6215329;28;20327;-68
2023/05/16 05:53:08;;;;;;;9.43;2.10;;;;;;;13.36;61.76;101413.81;6204374;28;20315;-67
2023/05/16 05:56:30;;;;;;;4.53;2.00;;;;;;;13.71;60.99;101412.41;6225731;28;20236;-68
2023/05/16 05:59:50;;;;;;;3.67;2.00;;;;;;;14.00;60.41;101416.81;6218954;28;20240;-67
2023/05/16 06:03:11;;;;;;;3.73;2.27;;;;;;;14.87;62.09;101425.56;6198929;28;21756;-68
2023/05/16 06:06:32;;;;;;;4.87;2.10;;;;;;;14.53;59.12;101430.69;6194116;28;20245;-65
2023/05/16 06:09:56;;;;;;;2.97;1.27;;;;;;;14.85;57.29;101435.72;6211017;28;20601;-67
2023/05/16 06:13:18;;;;;;;6.10;1.80;;;;;;;15.08;58.57;101437.88;6193294;28;20232;-67
2023/05/16 06:16:39;;;;;;;2.40;1.37;;;;;;;15.72;57.24;101432.31;6192512;28;20224;-67
2023/05/16 06:20:00;;;;;;;15.40;2.50;;;;;;;15.47;54.76;101445.81;6217654;28;20237;-68
2023/05/16 06:23:21;;;;;;;2.07;1.70;;;;;;;14.20;53.51;101436.63;6210363;28;20229;-65
2023/05/16 06:26:44;;;;;;;2.83;1.97;;;;;;;13.81;54.26;101441.22;6209253;28;20915;-67
2023/05/16 06:30:09;;;;;;;4.83;3.33;;;;;;;13.47;54.96;101443.50;6225049;28;20224;-68
2023/05/16 06:33:30;;;;;;;2.63;1.00;;;;;;;13.23;56.01;101436.72;6219769;28;20228;-68
2023/05/16 06:36:51;;;;;;;3.70;1.80;;;;;;;12.96;56.30;101448.19;6222006;28;20232;-68
2023/05/16 06:40:12;;;;;;;2.27;1.47;;;;;;;13.25;57.49;101454.56;6227747;28;20225;-67
2023/05/16 06:43:33;;;;;;;8.80;1.87;;;;;;;12.96;58.31;101463.56;6216135;28;20263;-67
2023/05/16 06:46:55;;;;;;;5.47;2.53;;;;;;;12.94;58.97;101470.94;6209111;28;20241;-69
2023/05/16 06:50:16;;;;;;;4.33;1.90;;;;;;;13.13;59.59;101473.75;6214225;28;20236;-69
2023/05/16 06:53:37;;;;;;;5.33;2.37;;;;;;;13.24;60.07;101488.06;6193078;28;20558;-69
2023/05/16 06:56:58;;;;;;;6.33;2.17;;;;;;;13.10;59.60;101488.44;6216289;28;20311;-70
2023/05/16 07:00:20;;;;;;;5.50;2.77;;;;;;;13.50;58.21;101485.69;6226545;28;20224;-68
2023/05/16 07:03:43;;;;;;;3.60;1.50;;;;;;;13.68;56.85;101481.31;6218232;28;20556;-68
2023/05/16 07:07:06;;;;;;;4.13;1.30;;;;;;;13.95;56.51;101477.88;6212616;28;20504;-67
2023/05/16 07:10:27;;;;;;;4.13;2.50;;;;;;;14.31;55.83;101485.28;6231206;28;20233;-66
2023/05/16 07:13:48;;;;;;;1.90;1.67;;;;;;;13.68;55.75;101494.00;6219409;28;20631;-68
2023/05/16 07:17:09;;;;;;;4.80;2.00;;;;;;;13.81;54.45;101491.88;6217451;28;20315;-69
2023/05/16 07:20:31;;;;;;;6.27;1.90;;;;;;;13.76;53.88;101500.41;6226643;28;20896;-68
2023/05/16 07:23:52;;;;;;;2.93;1.40;;;;;;;13.93;52.50;101498.84;6215551;28;20245;-69
2023/05/16 07:27:13;;;;;;;4.17;1.33;;;;;;;14.12;51.93;101502.41;6221816;28;20244;-68
2023/05/16 07:30:34;;;;;;;1.10;1.07;;;;;;;14.48;51.47;101502.69;6219845;28;20232;-68
2023/05/16 07:33:55;;;;;;;1.33;0.80;;;;;;;14.82;50.79;101502.03;6207870;28;20311;-68
2023/05/16 07:37:19;;;;;;;5.27;2.27;;;;;;;14.25;50.69;101491.25;6214084;28;20245;-70
2023/05/16 07:40:40;;;;;;;7.20;3.93;;;;;;;14.19;51.18;101495.41;6225497;28;20511;-71
2023/05/16 07:44:01;;;;;;;1.27;1.00;;;;;;;13.91;51.57;101512.56;6210224;28;20233;-68
2023/05/16 07:47:21;;;;;;;7.37;1.53;;;;;;;14.75;50.45;101502.78;6206759;28;20234;-69
2023/05/16 07:50:43;;;;;;;2.50;1.10;;;;;;;14.86;49.59;101500.72;6211418;28;20232;-67
2023/05/16 07:54:06;;;;;;;6.13;1.37;;;;;;;14.74;49.34;101501.03;6217083;28;20603;-68
2023/05/16 07:57:27;;;;;;;4.27;1.07;;;;;;;14.86;49.65;101516.16;6216690;28;20290;-69
2023/05/16 08:00:48;;;;;;;2.23;1.10;;;;;;;14.43;49.19;101517.53;6227195;28;20288;-68
2023/05/16 08:04:09;;;;;;;4.47;2.60;;;;;;;14.16;49.29;101514.66;6210807;28;20232;-66
2023/05/16 08:07:30;;;;;;;2.00;1.13;;;;;;;14.61;48.72;101512.22;6202064;28;20544;-67
2023/05/16 08:10:52;;;;;;;1.43;1.20;;;;;;;14.91;47.83;101511.13;6223399;28;20252;-68
2023/05/16 08:14:13;;;;;;;2.27;1.70;;;;;;;14.59;48.12;101514.22;6201945;28;20248;-68
2023/05/16 08:17:34;;;;;;;1.47;0.90;;;;;;;14.77;48.10;101514.34;6211509;28;20500;-68
2023/05/16 08:20:55;;;;;;;4.13;1.40;;;;;;;15.14;47.35;101517.91;6228124;28;20236;-68
2023/05/16 08:24:16;;;;;;;2.73;1.33;;;;;;;14.98;48.17;101509.53;6214115;28;20236;-67
2023/05/16 08:27:38;;;;;;;14.37;2.40;;;;;;;15.02;48.68;101516.38;6216232;28;20606;-67
2023/05/16 08:30:59;;;;;;;2.10;1.40;;;;;;;14.52;50.45;101536.69;6210910;28;20232;-68
2023/05/16 08:34:20;;;;;;;2.07;1.10;;;;;;;14.33;52.40;101535.69;6199180;28;20270;-69
2023/05/16 08:37:41;;;;;;;1.93;1.27;;;;;;;14.36;52.87;101527.25;6218351;28;20239;-69
2023/05/16 08:41:02;;;;;;;1.43;1.33;;;;;;;14.60;52.55;101537.66;6221108;28;20241;-69
2023/05/16 08:44:24;;;;;;;5.97;1.90;;;;;;;14.39;52.44;101518.81;6206130;28;20228;-68
2023/05/16 08:47:48;;;;;;;1.50;1.40;;;;;;;14.66;52.00;101518.06;6197934;28;20236;-67
2023/05/16 08:51:09;;;;;;;3.53;1.93;;;;;;;15.65;50.74;101528.22;6220998;28;20224;-67
2023/05/16 08:54:30;;;;;;;5.67;1.57;;;;;;;15.08;48.78;101522.06;6200505;28;20344;-67
2023/05/16 08:57:51;;;;;;;2.77;1.30;;;;;;;15.29;47.26;101512.84;6215821;28;20232;-68
2023/05/16 09:01:14;;;;;;;1.90;1.57;;;;;;;15.50;47.17;101513.47;6222528;28;20270;-66
2023/05/16 09:04:37;;;;;;;3.87;1.03;;;;;;;15.28;47.20;101513.81;6231054;28;20228;-68
2023/05/16 09:07:58;;;;;;;3.03;2.07;;;;;;;15.40;46.66;101527.06;6215992;28;21959;-67
2023/05/16 09:11:20;;;;;;;0.97;0.83;;;;;;;15.01;46.75;101507.38;6225798;28;20232;-67
2023/05/16 09:14:42;;;;;;;5.33;1.43;;;;;;;15.41;46.74;101517.06;6231848;28;20232;-67
2023/05/16 09:18:04;;;;;;;2.23;1.30;;;;;;;15.43;45.72;101517.78;6220400;28;20571;-68
2023/05/16 09:21:28;;;;;;;3.13;0.93;;;;;;;15.29;47.02;101516.38;6229422;28;20257;-67
2023/05/16 09:24:51;;;;;;;2.50;0.97;;;;;;;15.14;47.92;101529.59;6229266;28;20236;-67
2023/05/16 09:28:12;;;;;;;1.40;1.10;;;;;;;15.09;48.12;101523.78;6215926;28;20232;-68
2023/05/16 09:31:36;;;;;;;1.20;1.10;;;;;;;15.33;47.01;101531.41;6218485;28;20229;-68
2023/05/16 09:34:59;;;;;;;4.87;1.80;;;;;;;15.64;46.49;101535.53;6229476;28;20228;-68
2023/05/16 09:38:19;;;;;;;3.00;1.40;;;;;;;15.12;49.26;101533.50;6225243;28;20256;-68
2023/05/16 09:41:40;;;;;;;1.50;1.40;;;;;;;14.51;48.20;101533.09;6222992;28;20232;-67
2023/05/16 09:45:02;;;;;;;8.07;2.03;;;;;;;15.38;46.86;101525.50;6229708;28;20229;-67
2023/05/16 09:48:24;;;;;;;0.80;0.80;;;;;;;15.50;45.15;101527.06;6224031;28;20228;-67
2023/05/16 09:51:46;;;;;;;3.13;1.60;;;;;;;16.08;44.36;101508.47;6216499;28;20245;-67
2023/05/16 09:55:08;;;;;;;2.20;1.20;;;;;;;16.60;43.91;101508.41;6230728;28;20225;-66
2023/05/16 09:58:30;;;;;;;2.90;1.17;;;;;;;17.08;43.41;101512.44;6217642;28;20594;-67
2023/05/16 10:01:52;;;;;;;2.00;0.90;;;;;;;15.62;43.56;101520.41;6218034;28;20232;-69
2023/05/16 10:05:13;;;;;;;2.00;1.77;;;;;;;15.61;44.20;101532.25;6224492;28;20224;-67
2023/05/16 10:08:36;;;;;;;4.57;1.40;;;;;;;15.83;44.04;101540.84;6212289;28;20229;-67
2023/05/16 10:12:01;;;;;;;3.93;1.60;;;;;;;14.09;48.62;101531.66;6219030;28;20232;-69
2023/05/16 10:15:23;;;;;;;4.93;2.37;;;;;;;14.41;49.03;101549.38;6233990;28;20623;-68
2023/05/16 10:18:45;;;;;;;2.27;1.50;;;;;;;14.56;48.74;101560.63;6218279;28;20228;-66
2023/05/16 10:22:07;;;;;;;4.47;2.10;;;;;;;15.47;48.18;101541.78;6219822;28;20614;-69
2023/05/16 10:25:34;;;;;;;2.90;2.10;;;;;;;15.89;49.37;101545.69;6210836;28;21369;-68
2023/05/16 10:28:56;;;;;;;5.83;2.37;;;;;;;14.45;51.02;101547.25;6210011;28;20232;-69
2023/05/16 10:32:17;;;;;;;1.30;1.20;;;;;;;15.35;52.64;101540.25;6209533;28;20229;-70
2023/05/16 10:35:38;;;;;;;1.80;1.70;;;;;;;15.41;51.26;101536.94;6232903;28;20224;-69
2023/05/16 10:39:00;;;;;;;3.87;1.87;;;;;;;15.26;50.19;101522.13;6216817;28;20244;-69
2023/05/16 10:42:22;;;;;;;4.83;1.90;;;;;;;16.34;49.52;101534.69;6213454;28;20233;-69
2023/05/16 10:45:43;;;;;;;2.70;1.53;;;;;;;16.73;48.58;101527.88;6193365;28;20232;-68
2023/05/16 10:49:20;;;;;;;2.27;1.10;;;;;;;16.10;48.00;101555.41;6193258;28;20232;-70
2023/05/16 10:52:41;;;;;;;3.53;1.63;;;;;;;16.33;46.30;101543.91;6206261;28;20232;-68
2023/05/16 10:56:08;;;;;;;1.80;0.90;;;;;;;16.38;48.03;101544.25;6223769;28;20225;-70
2023/05/16 10:59:40;;;;;;;2.17;1.10;;;;;;;15.93;47.71;101554.38;6213031;28;20241;-70
2023/05/16 11:03:05;;;;;;;1.50;1.40;;;;;;;15.05;45.90;101567.69;6208399;28;20248;-70
2023/05/16 11:06:28;;;;;;;3.13;1.47;;;;;;;15.15;46.84;101577.50;6234381;28;20220;-68
2023/05/16 11:10:08;;;;;;;1.13;1.03;;;;;;;14.85;47.79;101568.75;6232627;28;20244;-68
2023/05/16 11:13:32;;;;;;;2.60;1.40;;;;;;;15.47;48.04;101584.41;6213190;28;21055;-69
2023/05/16 11:17:00;;;;;;;2.20;1.93;;;;;;;15.78;47.06;101572.22;6212251;28;20236;-70
2023/05/16 11:20:26;;;;;;;1.27;1.17;;;;;;;16.36;44.62;101554.44;6222549;28;20244;-69
2023/05/16 11:24:29;;;;;;;1.30;0.80;;;;;;;16.64;43.08;101549.78;6220156;28;20319;-68
2023/05/16 11:27:50;;;;;;;1.43;0.63;;;;;;;17.18;42.35;101570.38;6216273;28;20229;-69
2023/05/16 11:31:12;;;;;;;0.90;0.90;;;;;;;16.90;41.75;101574.31;6217874;28;20229;-69
2023/05/16 11:34:38;;;;;;;8.40;1.27;;;;;;;16.43;41.57;101577.31;6212288;28;20259;-71
2023/05/16 11:37:59;;;;;;;1.00;1.00;;;;;;;16.73;42.32;101557.84;6214937;28;20999;-69
2023/05/16 11:41:21;;;;;;;3.37;0.90;;;;;;;16.56;43.04;101561.44;6224240;28;20607;-67
2023/05/16 11:44:42;;;;;;;3.25;1.33;;;;;;;16.00;43.55;101591.69;6223473;28;20746;-70
2023/05/16 11:48:04;;;;;;;1.30;0.90;;;;;;;16.02;43.26;101584.22;6194551;28;20222;-70
2023/05/16 11:51:34;;;;;;;3.40;1.43;;;;;;;15.85;43.89;101568.72;6228849;28;20249;-70
2023/05/16 11:54:56;;;;;;;0.57;0.57;;;;;;;16.49;44.54;101567.66;6228191;28;20486;-69
2023/05/16 11:58:17;;;;;;;1.07;0.70;;;;;;;15.98;44.00;101569.22;6214166;28;20241;-67
2023/05/16 12:01:39;;;;;;;1.20;1.10;;;;;;;16.12;44.03;101577.84;6204748;28;20642;-69
2023/05/16 12:05:08;;;;;;;0.67;0.67;;;;;;;16.26;42.76;101586.34;6225197;28;20229;-68
2023/05/16 12:08:30;;;;;;;4.80;1.40;;;;;;;16.09;42.81;101587.19;6218357;28;20223;-68
2023/05/16 12:11:52;;;;;;;2.53;0.60;;;;;;;15.94;43.55;101605.88;6209201;28;20237;-67
2023/05/16 12:15:22;;;;;;;2.97;1.00;;;;;;;15.92;44.48;101616.06;6187915;28;20241;-68
2023/05/16 12:18:44;;;;;;;3.57;1.10;;;;;;;16.54;45.42;101598.88;6197069;28;20315;-68
2023/05/16 12:22:05;;;;;;;6.53;1.50;;;;;;;16.49;45.81;101611.22;6211956;28;20260;-69
2023/05/16 12:25:30;;;;;;;2.13;1.10;;;;;;;16.26;44.64;101602.66;6233524;28;20232;-68
2023/05/16 12:28:55;;;;;;;1.10;1.00;;;;;;;16.16;43.00;101609.19;6212171;28;20254;-66
2023/05/16 12:32:18;;;;;;;1.67;1.33;;;;;;;17.28;42.14;101592.94;6207222;28;22502;-68
2023/05/16 12:35:40;;;;;;;2.73;2.00;;;;;;;16.95;42.56;101604.63;6224675;28;20228;-68
2023/05/16 12:39:02;;;;;;;2.03;1.73;;;;;;;17.03;42.28;101612.88;6208919;28;20220;-70
2023/05/16 12:42:26;;;;;;;2.37;0.67;;;;;;;17.58;41.67;101615.09;6205148;28;20241;-67
2023/05/16 12:45:51;;;;;;;0.80;0.63;;;;;;;19.98;38.87;101622.66;6215356;28;20232;-68
2023/05/16 12:49:12;;;;;;;0.98;0.80;;;;;;;20.32;39.87;101619.53;6180112;28;20228;-68
2023/05/16 12:52:33;;;;;;;2.00;1.13;;;;;;;22.52;37.54;101607.69;6209911;28;20744;-69
2023/05/16 12:55:54;;;;;;;4.40;2.45;;;;;;;20.75;37.41;101639.97;6230018;28;20233;-69
2023/05/16 12:59:18;;;;;;;1.65;1.17;;;;;;;19.50;41.61;101633.78;6200228;28;20247;-67
2023/05/16 13:02:39;;;;;;;1.88;0.90;;;;;;;19.03;43.25;101630.91;6208150;28;20252;-69
2023/05/16 13:06:00;;;;;;;2.03;1.30;;;;;;;19.94;40.27;101638.56;6198732;28;20233;-67
2023/05/16 13:09:22;;;;;;;1.52;1.42;;;;;;;21.07;39.12;101623.28;6178660;28;20233;-68
2023/05/16 13:12:43;;;;;;;4.25;1.20;;;;;;;21.47;39.54;101634.66;6186150;28;20297;-67
2023/05/16 13:16:05;;;;;;;1.83;0.90;;;;;;;21.81;39.18;101642.34;6209205;28;20233;-68
2023/05/16 13:19:27;;;;;;;6.43;1.48;;;;;;;22.54;38.03;101627.59;6211559;28;20611;-67
2023/05/16 13:22:48;;;;;;;2.80;0.88;;;;;;;23.08;37.40;101639.78;6204692;28;20650;-67
2023/05/16 13:26:09;;;;;;;0.57;0.57;;;;;;;22.79;37.56;101638.03;6224006;28;20240;-68
2023/05/16 13:29:31;;;;;;;1.40;0.57;;;;;;;19.48;39.49;101646.78;6196351;28;20236;-69
2023/05/16 13:32:53;;;;;;;1.00;0.75;;;;;;;18.39;41.25;101642.66;6200583;28;20280;-67
2023/05/16 13:36:14;;;;;;;1.02;0.90;;;;;;;18.21;44.03;101659.16;6216201;28;20233;-67
2023/05/16 13:39:35;;;;;;;3.92;1.30;;;;;;;17.15;45.55;101663.34;6227359;28;20568;-68
2023/05/16 13:42:56;;;;;;;1.15;0.80;;;;;;;20.18;41.20;101644.94;6207735;28;20525;-68
2023/05/16 13:46:17;;;;;;;2.80;0.68;;;;;;;19.68;39.38;101651.66;6218967;28;20515;-68
2023/05/16 13:49:39;;;;;;;1.23;0.82;;;;;;;20.49;37.62;101660.34;6231156;28;20237;-71
2023/05/16 13:53:00;;;;;;;4.03;0.90;;;;;;;19.66;38.49;101659.19;6214392;28;20240;-68
2023/05/16 13:56:21;;;;;;;1.90;1.05;;;;;;;18.90;39.77;101666.13;6203750;28;20236;-68
2023/05/16 13:59:42;;;;;;;1.63;0.77;;;;;;;16.97;41.58;101657.97;6216091;28;20229;-67
2023/05/16 14:03:03;;;;;;;1.27;1.03;;;;;;;16.39;45.13;101676.63;6201260;28;20623;-68
2023/05/16 14:06:25;;;;;;;1.77;1.10;;;;;;;15.47;46.39;101674.97;6221744;28;20225;-68
2023/05/16 14:09:46;;;;;;;1.33;0.97;;;;;;;15.46;45.90;101675.13;6226979;28;20225;-68
2023/05/16 14:13:07;;;;;;;0.87;0.50;;;;;;;16.34;46.36;101668.06;6184897;28;20230;-67
2023/05/16 14:16:29;;;;;;;1.07;0.60;;;;;;;16.96;45.75;101669.03;6219923;28;20225;-67
2023/05/16 14:19:51;;;;;;;1.03;0.90;;;;;;;17.02;44.92;101668.38;6219655;28;20233;-68
2023/05/16 14:23:13;;;;;;;1.07;0.63;;;;;;;16.00;44.05;101676.00;6218656;28;20236;-68
2023/05/16 14:26:34;;;;;;;1.70;1.60;;;;;;;16.75;44.08;101669.34;6218908;28;20228;-68
2023/05/16 14:29:55;;;;;;;7.70;1.43;;;;;;;16.47;44.40;101675.84;6229502;28;20236;-67
2023/05/16 14:33:16;;;;;;;3.13;1.33;;;;;;;17.41;43.90;101670.53;6203238;28;20221;-66
2023/05/16 14:36:37;;;;;;;2.63;1.07;;;;;;;17.67;43.13;101659.63;6222455;28;20233;-72
2023/05/16 14:39:59;;;;;;;5.23;1.03;;;;;;;18.03;43.82;101668.47;6222425;28;20225;-67
2023/05/16 14:43:20;;;;;;;2.53;1.40;;;;;;;17.23;44.28;101675.16;6203602;28;20236;-67
2023/05/16 14:46:41;;;;;;;1.27;1.00;;;;;;;16.23;46.24;101660.09;6215338;28;20261;-68
2023/05/16 14:50:02;;;;;;;2.00;0.83;;;;;;;15.60;46.38;101680.94;6226156;28;20236;-68
2023/05/16 14:53:26;;;;;;;4.70;1.13;;;;;;;15.59;46.34;101679.19;6207561;28;20228;-68
2023/05/16 14:56:48;;;;;;;1.13;0.83;;;;;;;15.44;47.43;101652.63;6204616;28;20307;-67
2023/05/16 15:00:11;;;;;;;1.03;0.70;;;;;;;16.07;45.25;101667.22;6204547;28;20232;-67
2023/05/16 15:03:32;;;;;;;1.20;1.10;;;;;;;15.95;43.83;101667.44;6207433;28;20240;-68
2023/05/16 15:06:52;;;;;;;1.60;0.40;;;;;;;15.59;44.12;101668.31;6203660;28;20236;-66
2023/05/16 15:10:13;;;;;;;2.27;0.90;;;;;;;15.14;45.49;101664.59;6221379;28;20228;-68
2023/05/16 15:13:36;;;;;;;2.53;1.00;;;;;;;15.45;46.69;101684.25;6209546;28;20713;-68
2023/05/16 15:16:56;;;;;;;1.03;0.70;;;;;;;15.98;44.72;101669.00;6198061;28;20642;-68
2023/05/16 15:20:18;;;;;;;1.37;0.90;;;;;;;15.85;44.21;101674.78;6221803;28;20294;-66
2023/05/16 15:23:38;;;;;;;1.20;0.93;;;;;;;15.82;45.81;101668.78;6502102;22;20417;-68
2023/05/16 15:26:59;;;;;;;4.37;1.77;;;;;;;16.45;46.80;101656.94;6215490;28;20236;-67
2023/05/16 15:30:21;;;;;;;3.03;2.27;;;;;;;16.08;47.20;101675.25;6234733;28;20236;-68
2023/05/16 15:33:44;;;;;;;3.03;1.33;;;;;;;15.40;48.34;101672.94;6226936;28;20232;-68
2023/05/16 15:37:05;;;;;;;1.97;1.57;;;;;;;15.42;48.71;101676.34;6220913;28;20224;-68
2023/05/16 15:40:26;;;;;;;2.53;1.30;;;;;;;14.88;49.54;101664.31;6237158;28;20247;-67